sensor_id;sensor_type;location;lat;lon;timestamp;P1;durP1;ratioP1;P2;durP2;ratioP2
69081;SDS011;69029;51.986;5.760;2023-04-24T00:01:47;4.20;;;2.63;;
69081;SDS011;69029;51.986;5.760;2023-04-24T00:04:12;3.00;;;2.70;;
69081;SDS011;69029;51.986;5.760;2023-04-24T00:06:39;6.38;;;3.10;;
69081;SDS011;69029;51.986;5.760;2023-04-24T00:09:07;4.53;;;2.50;;
69081;SDS011;69029;51.986;5.760;2023-04-24T00:11:34;4.10;;;3.13;;
69081;SDS011;69029;51.986;5.760;2023-04-24T00:14:01;5.45;;;2.83;;
69081;SDS011;69029;51.986;5.760;2023-04-24T00:16:26;6.70;;;3.17;;
69081;SDS011;69029;51.986;5.760;2023-04-24T00:18:53;2.92;;;2.72;;
69081;SDS011;69029;51.986;5.760;2023-04-24T00:21:18;3.72;;;2.40;;
69081;SDS011;69029;51.986;5.760;2023-04-24T00:23:44;3.95;;;2.30;;
69081;SDS011;69029;51.986;5.760;2023-04-24T00:26:10;3.40;;;2.20;;
69081;SDS011;69029;51.986;5.760;2023-04-24T00:28:35;2.10;;;1.90;;
69081;SDS011;69029;51.986;5.760;2023-04-24T00:31:01;1.77;;;1.67;;
69081;SDS011;69029;51.986;5.760;2023-04-24T00:33:27;2.90;;;1.70;;
69081;SDS011;69029;51.986;5.760;2023-04-24T00:35:52;1.65;;;1.45;;
69081;SDS011;69029;51.986;5.760;2023-04-24T00:38:18;2.72;;;2.10;;
69081;SDS011;69029;51.986;5.760;2023-04-24T00:40:43;2.70;;;2.00;;
69081;SDS011;69029;51.986;5.760;2023-04-24T00:43:09;2.38;;;1.63;;
69081;SDS011;69029;51.986;5.760;2023-04-24T00:45:36;3.80;;;2.03;;
69081;SDS011;69029;51.986;5.760;2023-04-24T00:48:01;4.78;;;2.15;;
69081;SDS011;69029;51.986;5.760;2023-04-24T00:50:28;3.88;;;2.40;;
69081;SDS011;69029;51.986;5.760;2023-04-24T00:52:54;5.80;;;2.97;;
69081;SDS011;69029;51.986;5.760;2023-04-24T00:55:20;6.65;;;3.13;;
69081;SDS011;69029;51.986;5.760;2023-04-24T00:57:45;4.45;;;3.42;;
69081;SDS011;69029;51.986;5.760;2023-04-24T01:00:12;3.97;;;2.90;;
69081;SDS011;69029;51.986;5.760;2023-04-24T01:02:41;3.72;;;3.25;;
69081;SDS011;69029;51.986;5.760;2023-04-24T01:05:10;4.00;;;3.50;;
69081;SDS011;69029;51.986;5.760;2023-04-24T01:07:43;3.50;;;3.20;;
69081;SDS011;69029;51.986;5.760;2023-04-24T01:10:11;4.32;;;3.47;;
69081;SDS011;69029;51.986;5.760;2023-04-24T01:12:37;4.05;;;3.65;;
69081;SDS011;69029;51.986;5.760;2023-04-24T01:15:03;5.50;;;3.42;;
69081;SDS011;69029;51.986;5.760;2023-04-24T01:17:30;6.20;;;4.20;;
69081;SDS011;69029;51.986;5.760;2023-04-24T01:19:56;4.93;;;4.30;;
69081;SDS011;69029;51.986;5.760;2023-04-24T01:22:22;4.55;;;3.30;;
69081;SDS011;69029;51.986;5.760;2023-04-24T01:24:47;3.60;;;3.03;;
69081;SDS011;69029;51.986;5.760;2023-04-24T01:27:13;5.07;;;3.88;;
69081;SDS011;69029;51.986;5.760;2023-04-24T01:29:40;3.75;;;3.15;;
69081;SDS011;69029;51.986;5.760;2023-04-24T01:32:06;4.07;;;3.10;;
69081;SDS011;69029;51.986;5.760;2023-04-24T01:34:32;5.47;;;3.20;;
69081;SDS011;69029;51.986;5.760;2023-04-24T01:36:58;5.55;;;3.47;;
69081;SDS011;69029;51.986;5.760;2023-04-24T01:39:24;5.32;;;2.70;;
69081;SDS011;69029;51.986;5.760;2023-04-24T01:41:51;2.95;;;2.65;;
69081;SDS011;69029;51.986;5.760;2023-04-24T01:44:17;4.38;;;2.90;;
69081;SDS011;69029;51.986;5.760;2023-04-24T01:46:43;7.00;;;2.47;;
69081;SDS011;69029;51.986;5.760;2023-04-24T01:49:09;3.40;;;2.70;;
69081;SDS011;69029;51.986;5.760;2023-04-24T01:51:35;4.22;;;2.90;;
69081;SDS011;69029;51.986;5.760;2023-04-24T01:54:01;3.78;;;2.90;;
69081;SDS011;69029;51.986;5.760;2023-04-24T01:56:28;2.97;;;2.42;;
69081;SDS011;69029;51.986;5.760;2023-04-24T01:58:54;4.55;;;3.38;;
69081;SDS011;69029;51.986;5.760;2023-04-24T02:01:21;3.90;;;3.30;;
69081;SDS011;69029;51.986;5.760;2023-04-24T02:03:49;4.82;;;3.70;;
69081;SDS011;69029;51.986;5.760;2023-04-24T02:06:14;7.18;;;4.28;;
69081;SDS011;69029;51.986;5.760;2023-04-24T02:08:40;6.00;;;4.30;;
69081;SDS011;69029;51.986;5.760;2023-04-24T02:11:06;6.63;;;4.30;;
69081;SDS011;69029;51.986;5.760;2023-04-24T02:13:33;7.07;;;5.10;;
69081;SDS011;69029;51.986;5.760;2023-04-24T02:15:59;8.73;;;5.50;;
69081;SDS011;69029;51.986;5.760;2023-04-24T02:18:24;6.20;;;5.18;;
69081;SDS011;69029;51.986;5.760;2023-04-24T02:20:50;8.55;;;5.45;;
69081;SDS011;69029;51.986;5.760;2023-04-24T02:23:16;9.18;;;6.00;;
69081;SDS011;69029;51.986;5.760;2023-04-24T02:25:41;7.47;;;5.93;;
69081;SDS011;69029;51.986;5.760;2023-04-24T02:28:07;7.35;;;5.78;;
69081;SDS011;69029;51.986;5.760;2023-04-24T02:30:32;12.50;;;7.20;;
69081;SDS011;69029;51.986;5.760;2023-04-24T02:32:58;10.70;;;6.95;;
69081;SDS011;69029;51.986;5.760;2023-04-24T02:35:23;19.08;;;8.23;;
69081;SDS011;69029;51.986;5.760;2023-04-24T02:37:49;19.33;;;9.10;;
69081;SDS011;69029;51.986;5.760;2023-04-24T02:40:15;18.10;;;11.13;;
69081;SDS011;69029;51.986;5.760;2023-04-24T02:42:40;21.20;;;12.32;;
69081;SDS011;69029;51.986;5.760;2023-04-24T02:45:06;22.17;;;13.98;;
69081;SDS011;69029;51.986;5.760;2023-04-24T02:47:32;24.83;;;13.50;;
69081;SDS011;69029;51.986;5.760;2023-04-24T02:49:57;17.15;;;10.65;;
69081;SDS011;69029;51.986;5.760;2023-04-24T02:52:23;19.42;;;11.38;;
69081;SDS011;69029;51.986;5.760;2023-04-24T02:54:48;16.85;;;10.90;;
69081;SDS011;69029;51.986;5.760;2023-04-24T02:57:14;20.05;;;11.38;;
69081;SDS011;69029;51.986;5.760;2023-04-24T02:59:40;11.43;;;8.10;;
69081;SDS011;69029;51.986;5.760;2023-04-24T03:02:05;12.50;;;7.22;;
69081;SDS011;69029;51.986;5.760;2023-04-24T03:04:31;9.40;;;7.10;;
69081;SDS011;69029;51.986;5.760;2023-04-24T03:06:57;9.75;;;7.00;;
69081;SDS011;69029;51.986;5.760;2023-04-24T03:09:23;9.88;;;6.57;;
69081;SDS011;69029;51.986;5.760;2023-04-24T03:11:49;13.05;;;6.97;;
69081;SDS011;69029;51.986;5.760;2023-04-24T03:14:15;10.50;;;6.75;;
69081;SDS011;69029;51.986;5.760;2023-04-24T03:16:41;9.32;;;6.35;;
69081;SDS011;69029;51.986;5.760;2023-04-24T03:19:06;10.10;;;6.60;;
69081;SDS011;69029;51.986;5.760;2023-04-24T03:21:32;11.55;;;7.60;;
69081;SDS011;69029;51.986;5.760;2023-04-24T03:23:58;17.50;;;8.98;;
69081;SDS011;69029;51.986;5.760;2023-04-24T03:26:24;18.33;;;11.15;;
69081;SDS011;69029;51.986;5.760;2023-04-24T03:28:49;20.98;;;12.57;;
69081;SDS011;69029;51.986;5.760;2023-04-24T03:31:15;18.50;;;12.15;;
69081;SDS011;69029;51.986;5.760;2023-04-24T03:33:41;19.50;;;12.23;;
69081;SDS011;69029;51.986;5.760;2023-04-24T03:36:07;20.98;;;12.60;;
69081;SDS011;69029;51.986;5.760;2023-04-24T03:38:32;18.33;;;12.75;;
69081;SDS011;69029;51.986;5.760;2023-04-24T03:40:58;20.42;;;12.20;;
69081;SDS011;69029;51.986;5.760;2023-04-24T03:43:24;22.27;;;13.45;;
69081;SDS011;69029;51.986;5.760;2023-04-24T03:45:49;24.40;;;14.07;;
69081;SDS011;69029;51.986;5.760;2023-04-24T03:48:15;24.20;;;14.70;;
69081;SDS011;69029;51.986;5.760;2023-04-24T03:50:41;24.98;;;14.98;;
69081;SDS011;69029;51.986;5.760;2023-04-24T03:53:07;26.33;;;14.43;;
69081;SDS011;69029;51.986;5.760;2023-04-24T03:55:33;25.30;;;14.93;;
69081;SDS011;69029;51.986;5.760;2023-04-24T03:57:58;27.85;;;17.05;;
69081;SDS011;69029;51.986;5.760;2023-04-24T04:00:24;27.80;;;16.23;;
69081;SDS011;69029;51.986;5.760;2023-04-24T04:02:51;27.65;;;17.42;;
69081;SDS011;69029;51.986;5.760;2023-04-24T04:05:16;32.20;;;17.67;;
69081;SDS011;69029;51.986;5.760;2023-04-24T04:07:42;32.50;;;19.73;;
69081;SDS011;69029;51.986;5.760;2023-04-24T04:10:07;25.58;;;17.55;;
69081;SDS011;69029;51.986;5.760;2023-04-24T04:12:33;28.73;;;18.15;;
69081;SDS011;69029;51.986;5.760;2023-04-24T04:14:59;31.58;;;19.02;;
69081;SDS011;69029;51.986;5.760;2023-04-24T04:17:25;30.88;;;19.38;;
69081;SDS011;69029;51.986;5.760;2023-04-24T04:19:50;29.13;;;18.63;;
69081;SDS011;69029;51.986;5.760;2023-04-24T04:22:16;31.20;;;19.40;;
69081;SDS011;69029;51.986;5.760;2023-04-24T04:24:41;35.53;;;19.33;;
69081;SDS011;69029;51.986;5.760;2023-04-24T04:27:07;32.63;;;18.42;;
69081;SDS011;69029;51.986;5.760;2023-04-24T04:29:33;29.73;;;16.90;;
69081;SDS011;69029;51.986;5.760;2023-04-24T04:32:00;26.67;;;17.60;;
69081;SDS011;69029;51.986;5.760;2023-04-24T04:34:27;37.40;;;18.50;;
69081;SDS011;69029;51.986;5.760;2023-04-24T04:36:53;32.17;;;18.60;;
69081;SDS011;69029;51.986;5.760;2023-04-24T04:39:18;27.42;;;17.50;;
69081;SDS011;69029;51.986;5.760;2023-04-24T04:41:44;27.10;;;16.70;;
69081;SDS011;69029;51.986;5.760;2023-04-24T04:44:13;24.65;;;16.65;;
69081;SDS011;69029;51.986;5.760;2023-04-24T04:46:40;26.98;;;17.20;;
69081;SDS011;69029;51.986;5.760;2023-04-24T04:49:06;23.13;;;16.42;;
69081;SDS011;69029;51.986;5.760;2023-04-24T04:51:33;26.27;;;16.77;;
69081;SDS011;69029;51.986;5.760;2023-04-24T04:53:59;25.95;;;16.27;;
69081;SDS011;69029;51.986;5.760;2023-04-24T04:56:25;25.98;;;17.15;;
69081;SDS011;69029;51.986;5.760;2023-04-24T04:58:51;24.55;;;15.98;;
69081;SDS011;69029;51.986;5.760;2023-04-24T05:01:16;22.83;;;15.30;;
69081;SDS011;69029;51.986;5.760;2023-04-24T05:03:42;21.63;;;14.82;;
69081;SDS011;69029;51.986;5.760;2023-04-24T05:06:08;25.42;;;14.48;;
69081;SDS011;69029;51.986;5.760;2023-04-24T05:08:34;23.83;;;14.50;;
69081;SDS011;69029;51.986;5.760;2023-04-24T05:10:59;24.42;;;13.82;;
69081;SDS011;69029;51.986;5.760;2023-04-24T05:13:25;22.23;;;14.65;;
69081;SDS011;69029;51.986;5.760;2023-04-24T05:15:51;18.70;;;12.70;;
69081;SDS011;69029;51.986;5.760;2023-04-24T05:18:17;19.13;;;12.88;;
69081;SDS011;69029;51.986;5.760;2023-04-24T05:20:42;20.90;;;12.88;;
69081;SDS011;69029;51.986;5.760;2023-04-24T05:23:08;21.35;;;13.98;;
69081;SDS011;69029;51.986;5.760;2023-04-24T05:25:34;30.10;;;15.25;;
69081;SDS011;69029;51.986;5.760;2023-04-24T05:28:01;29.77;;;14.15;;
69081;SDS011;69029;51.986;5.760;2023-04-24T05:30:27;22.90;;;13.98;;
69081;SDS011;69029;51.986;5.760;2023-04-24T05:32:52;27.52;;;13.90;;
69081;SDS011;69029;51.986;5.760;2023-04-24T05:35:18;24.80;;;12.57;;
69081;SDS011;69029;51.986;5.760;2023-04-24T05:37:44;17.98;;;10.40;;
69081;SDS011;69029;51.986;5.760;2023-04-24T05:40:10;20.08;;;9.80;;
69081;SDS011;69029;51.986;5.760;2023-04-24T05:42:36;12.35;;;7.25;;
69081;SDS011;69029;51.986;5.760;2023-04-24T05:45:01;13.13;;;7.47;;
69081;SDS011;69029;51.986;5.760;2023-04-24T05:47:27;11.70;;;6.90;;
69081;SDS011;69029;51.986;5.760;2023-04-24T05:49:56;11.30;;;6.50;;
69081;SDS011;69029;51.986;5.760;2023-04-24T05:52:21;11.63;;;6.32;;
69081;SDS011;69029;51.986;5.760;2023-04-24T05:54:47;8.95;;;6.35;;
69081;SDS011;69029;51.986;5.760;2023-04-24T05:57:12;10.52;;;6.18;;
69081;SDS011;69029;51.986;5.760;2023-04-24T05:59:38;8.45;;;5.80;;
69081;SDS011;69029;51.986;5.760;2023-04-24T06:02:05;12.77;;;5.93;;
69081;SDS011;69029;51.986;5.760;2023-04-24T06:04:31;11.82;;;6.10;;
69081;SDS011;69029;51.986;5.760;2023-04-24T06:06:57;12.10;;;7.35;;
69081;SDS011;69029;51.986;5.760;2023-04-24T06:09:22;9.35;;;6.10;;
69081;SDS011;69029;51.986;5.760;2023-04-24T06:11:48;11.93;;;6.60;;
69081;SDS011;69029;51.986;5.760;2023-04-24T06:14:15;8.35;;;5.82;;
69081;SDS011;69029;51.986;5.760;2023-04-24T06:16:41;11.32;;;6.30;;
69081;SDS011;69029;51.986;5.760;2023-04-24T06:19:07;9.23;;;6.32;;
69081;SDS011;69029;51.986;5.760;2023-04-24T06:21:33;11.70;;;7.00;;
69081;SDS011;69029;51.986;5.760;2023-04-24T06:23:59;11.25;;;6.28;;
69081;SDS011;69029;51.986;5.760;2023-04-24T06:26:24;10.07;;;6.13;;
69081;SDS011;69029;51.986;5.760;2023-04-24T06:28:51;10.32;;;4.95;;
69081;SDS011;69029;51.986;5.760;2023-04-24T06:31:19;8.15;;;5.65;;
69081;SDS011;69029;51.986;5.760;2023-04-24T06:33:45;7.72;;;5.75;;
69081;SDS011;69029;51.986;5.760;2023-04-24T06:36:11;6.97;;;4.80;;
69081;SDS011;69029;51.986;5.760;2023-04-24T06:38:37;6.70;;;4.10;;
69081;SDS011;69029;51.986;5.760;2023-04-24T06:41:02;6.65;;;3.35;;
69081;SDS011;69029;51.986;5.760;2023-04-24T06:43:30;5.45;;;3.70;;
69081;SDS011;69029;51.986;5.760;2023-04-24T06:45:56;4.30;;;3.42;;
69081;SDS011;69029;51.986;5.760;2023-04-24T06:48:23;9.70;;;4.25;;
69081;SDS011;69029;51.986;5.760;2023-04-24T06:50:49;6.28;;;3.67;;
69081;SDS011;69029;51.986;5.760;2023-04-24T06:53:14;7.22;;;3.33;;
69081;SDS011;69029;51.986;5.760;2023-04-24T06:55:40;3.38;;;2.60;;
69081;SDS011;69029;51.986;5.760;2023-04-24T06:58:06;2.60;;;2.40;;
69081;SDS011;69029;51.986;5.760;2023-04-24T07:00:32;4.07;;;2.75;;
69081;SDS011;69029;51.986;5.760;2023-04-24T07:02:58;4.22;;;2.60;;
69081;SDS011;69029;51.986;5.760;2023-04-24T07:05:24;2.67;;;2.33;;
69081;SDS011;69029;51.986;5.760;2023-04-24T07:07:49;6.35;;;2.47;;
69081;SDS011;69029;51.986;5.760;2023-04-24T07:10:16;5.60;;;2.22;;
69081;SDS011;69029;51.986;5.760;2023-04-24T07:12:42;4.43;;;2.20;;
69081;SDS011;69029;51.986;5.760;2023-04-24T07:15:07;2.65;;;2.00;;
69081;SDS011;69029;51.986;5.760;2023-04-24T07:17:34;8.15;;;1.58;;
69081;SDS011;69029;51.986;5.760;2023-04-24T07:20:00;2.85;;;1.60;;
69081;SDS011;69029;51.986;5.760;2023-04-24T07:22:26;3.88;;;1.38;;
69081;SDS011;69029;51.986;5.760;2023-04-24T07:24:51;1.85;;;1.50;;
69081;SDS011;69029;51.986;5.760;2023-04-24T07:27:17;2.13;;;1.60;;
69081;SDS011;69029;51.986;5.760;2023-04-24T07:29:42;6.25;;;1.67;;
69081;SDS011;69029;51.986;5.760;2023-04-24T07:32:08;3.13;;;2.45;;
69081;SDS011;69029;51.986;5.760;2023-04-24T07:34:34;5.13;;;3.08;;
69081;SDS011;69029;51.986;5.760;2023-04-24T07:37:00;3.90;;;3.03;;
69081;SDS011;69029;51.986;5.760;2023-04-24T07:39:26;6.53;;;3.40;;
69081;SDS011;69029;51.986;5.760;2023-04-24T07:41:52;6.55;;;4.13;;
69081;SDS011;69029;51.986;5.760;2023-04-24T07:44:18;14.55;;;4.53;;
69081;SDS011;69029;51.986;5.760;2023-04-24T07:46:44;6.57;;;4.22;;
69081;SDS011;69029;51.986;5.760;2023-04-24T07:49:09;6.40;;;4.32;;
69081;SDS011;69029;51.986;5.760;2023-04-24T07:51:35;9.23;;;4.68;;
69081;SDS011;69029;51.986;5.760;2023-04-24T07:54:03;9.35;;;5.93;;
69081;SDS011;69029;51.986;5.760;2023-04-24T07:56:31;12.20;;;5.75;;
69081;SDS011;69029;51.986;5.760;2023-04-24T07:58:57;11.07;;;6.70;;
69081;SDS011;69029;51.986;5.760;2023-04-24T08:01:22;11.07;;;6.72;;
69081;SDS011;69029;51.986;5.760;2023-04-24T08:03:48;13.05;;;5.97;;
69081;SDS011;69029;51.986;5.760;2023-04-24T08:06:13;8.98;;;5.50;;
69081;SDS011;69029;51.986;5.760;2023-04-24T08:08:39;9.40;;;6.18;;
69081;SDS011;69029;51.986;5.760;2023-04-24T08:11:05;13.63;;;6.40;;
69081;SDS011;69029;51.986;5.760;2023-04-24T08:13:30;13.60;;;6.47;;
69081;SDS011;69029;51.986;5.760;2023-04-24T08:15:56;14.48;;;5.60;;
69081;SDS011;69029;51.986;5.760;2023-04-24T08:18:22;11.75;;;6.38;;
69081;SDS011;69029;51.986;5.760;2023-04-24T08:20:48;12.38;;;6.28;;
69081;SDS011;69029;51.986;5.760;2023-04-24T08:23:13;12.70;;;5.97;;
69081;SDS011;69029;51.986;5.760;2023-04-24T08:25:39;16.95;;;6.63;;
69081;SDS011;69029;51.986;5.760;2023-04-24T08:28:05;13.55;;;5.97;;
69081;SDS011;69029;51.986;5.760;2023-04-24T08:30:33;14.75;;;6.43;;
69081;SDS011;69029;51.986;5.760;2023-04-24T08:32:59;14.70;;;6.40;;
69081;SDS011;69029;51.986;5.760;2023-04-24T08:35:25;14.30;;;6.25;;
69081;SDS011;69029;51.986;5.760;2023-04-24T08:37:51;12.48;;;6.30;;
69081;SDS011;69029;51.986;5.760;2023-04-24T08:40:18;11.25;;;6.20;;
69081;SDS011;69029;51.986;5.760;2023-04-24T08:42:51;15.00;;;6.75;;
69081;SDS011;69029;51.986;5.760;2023-04-24T08:45:20;15.90;;;7.75;;
69081;SDS011;69029;51.986;5.760;2023-04-24T08:47:46;17.05;;;6.70;;
69081;SDS011;69029;51.986;5.760;2023-04-24T08:50:12;13.35;;;6.38;;
69081;SDS011;69029;51.986;5.760;2023-04-24T08:52:38;14.70;;;5.40;;
69081;SDS011;69029;51.986;5.760;2023-04-24T08:55:04;12.23;;;4.07;;
69081;SDS011;69029;51.986;5.760;2023-04-24T08:57:30;11.60;;;3.25;;
69081;SDS011;69029;51.986;5.760;2023-04-24T08:59:57;14.73;;;3.72;;
69081;SDS011;69029;51.986;5.760;2023-04-24T09:02:23;12.98;;;4.15;;
69081;SDS011;69029;51.986;5.760;2023-04-24T09:04:50;12.50;;;3.28;;
69081;SDS011;69029;51.986;5.760;2023-04-24T09:07:18;20.25;;;4.38;;
69081;SDS011;69029;51.986;5.760;2023-04-24T09:09:45;15.85;;;3.60;;
69081;SDS011;69029;51.986;5.760;2023-04-24T09:12:11;9.35;;;2.67;;
69081;SDS011;69029;51.986;5.760;2023-04-24T09:14:38;18.08;;;3.28;;
69081;SDS011;69029;51.986;5.760;2023-04-24T09:17:09;14.10;;;3.00;;
69081;SDS011;69029;51.986;5.760;2023-04-24T09:19:36;17.45;;;3.30;;
69081;SDS011;69029;51.986;5.760;2023-04-24T09:22:04;18.85;;;3.55;;
69081;SDS011;69029;51.986;5.760;2023-04-24T09:24:31;15.93;;;3.13;;
69081;SDS011;69029;51.986;5.760;2023-04-24T09:26:57;11.73;;;2.65;;
69081;SDS011;69029;51.986;5.760;2023-04-24T09:29:23;10.02;;;2.30;;
69081;SDS011;69029;51.986;5.760;2023-04-24T09:31:50;11.70;;;2.38;;
69081;SDS011;69029;51.986;5.760;2023-04-24T09:34:18;13.60;;;2.65;;
69081;SDS011;69029;51.986;5.760;2023-04-24T09:36:47;11.98;;;1.95;;
69081;SDS011;69029;51.986;5.760;2023-04-24T09:39:14;10.60;;;2.20;;
69081;SDS011;69029;51.986;5.760;2023-04-24T09:41:47;14.93;;;2.53;;
69081;SDS011;69029;51.986;5.760;2023-04-24T09:44:18;11.25;;;2.08;;
69081;SDS011;69029;51.986;5.760;2023-04-24T09:46:51;9.97;;;2.17;;
69081;SDS011;69029;51.986;5.760;2023-04-24T09:49:22;13.25;;;2.33;;
69081;SDS011;69029;51.986;5.760;2023-04-24T09:51:49;14.35;;;2.75;;
69081;SDS011;69029;51.986;5.760;2023-04-24T09:54:21;10.88;;;2.33;;
69081;SDS011;69029;51.986;5.760;2023-04-24T09:56:48;11.63;;;2.58;;
69081;SDS011;69029;51.986;5.760;2023-04-24T09:59:16;9.55;;;2.13;;
69081;SDS011;69029;51.986;5.760;2023-04-24T10:01:43;7.57;;;2.00;;
69081;SDS011;69029;51.986;5.760;2023-04-24T10:04:19;12.18;;;2.38;;
69081;SDS011;69029;51.986;5.760;2023-04-24T10:06:47;16.73;;;2.40;;
69081;SDS011;69029;51.986;5.760;2023-04-24T10:09:14;8.95;;;2.00;;
69081;SDS011;69029;51.986;5.760;2023-04-24T10:11:43;10.60;;;2.13;;
69081;SDS011;69029;51.986;5.760;2023-04-24T10:14:14;15.85;;;2.60;;
69081;SDS011;69029;51.986;5.760;2023-04-24T10:16:41;9.45;;;2.15;;
69081;SDS011;69029;51.986;5.760;2023-04-24T10:19:07;7.20;;;1.90;;
69081;SDS011;69029;51.986;5.760;2023-04-24T10:21:34;10.77;;;2.45;;
69081;SDS011;69029;51.986;5.760;2023-04-24T10:24:02;7.18;;;1.83;;
69081;SDS011;69029;51.986;5.760;2023-04-24T10:26:32;12.10;;;2.70;;
69081;SDS011;69029;51.986;5.760;2023-04-24T10:29:00;10.65;;;1.90;;
69081;SDS011;69029;51.986;5.760;2023-04-24T10:31:26;7.50;;;1.83;;
69081;SDS011;69029;51.986;5.760;2023-04-24T10:33:55;10.70;;;2.13;;
69081;SDS011;69029;51.986;5.760;2023-04-24T10:36:23;10.75;;;1.95;;
69081;SDS011;69029;51.986;5.760;2023-04-24T10:38:52;11.93;;;1.88;;
69081;SDS011;69029;51.986;5.760;2023-04-24T10:41:19;9.18;;;1.92;;
69081;SDS011;69029;51.986;5.760;2023-04-24T10:44:06;9.45;;;2.05;;
69081;SDS011;69029;51.986;5.760;2023-04-24T10:46:33;8.05;;;1.92;;
69081;SDS011;69029;51.986;5.760;2023-04-24T10:48:58;6.45;;;1.52;;
69081;SDS011;69029;51.986;5.760;2023-04-24T10:54:25;5.15;;;1.27;;
69081;SDS011;69029;51.986;5.760;2023-04-24T10:56:52;7.75;;;1.88;;
69081;SDS011;69029;51.986;5.760;2023-04-24T10:59:25;8.50;;;1.80;;
69081;SDS011;69029;51.986;5.760;2023-04-24T11:01:53;8.93;;;1.60;;
69081;SDS011;69029;51.986;5.760;2023-04-24T11:04:28;7.35;;;1.10;;
69081;SDS011;69029;51.986;5.760;2023-04-24T11:06:56;5.93;;;1.35;;
69081;SDS011;69029;51.986;5.760;2023-04-24T11:09:22;6.47;;;1.55;;
69081;SDS011;69029;51.986;5.760;2023-04-24T11:11:53;5.40;;;1.20;;
69081;SDS011;69029;51.986;5.760;2023-04-24T11:17:30;3.30;;;1.02;;
69081;SDS011;69029;51.986;5.760;2023-04-24T11:20:08;4.82;;;1.13;;
69081;SDS011;69029;51.986;5.760;2023-04-24T11:22:41;2.77;;;0.80;;
69081;SDS011;69029;51.986;5.760;2023-04-24T11:25:07;3.10;;;1.10;;
69081;SDS011;69029;51.986;5.760;2023-04-24T11:27:40;3.30;;;0.85;;
69081;SDS011;69029;51.986;5.760;2023-04-24T11:30:11;4.22;;;1.15;;
69081;SDS011;69029;51.986;5.760;2023-04-24T11:32:42;3.00;;;0.90;;
69081;SDS011;69029;51.986;5.760;2023-04-24T11:35:15;2.67;;;0.60;;
69081;SDS011;69029;51.986;5.760;2023-04-24T11:37:43;6.93;;;1.15;;
69081;SDS011;69029;51.986;5.760;2023-04-24T11:40:11;4.50;;;0.70;;
69081;SDS011;69029;51.986;5.760;2023-04-24T11:42:43;2.00;;;0.52;;
69081;SDS011;69029;51.986;5.760;2023-04-24T11:45:10;2.20;;;0.80;;
69081;SDS011;69029;51.986;5.760;2023-04-24T11:47:41;4.97;;;0.77;;
69081;SDS011;69029;51.986;5.760;2023-04-24T11:50:09;2.42;;;0.85;;
69081;SDS011;69029;51.986;5.760;2023-04-24T11:52:37;2.17;;;0.70;;
69081;SDS011;69029;51.986;5.760;2023-04-24T11:55:03;3.70;;;0.90;;
69081;SDS011;69029;51.986;5.760;2023-04-24T11:57:29;3.75;;;0.90;;
69081;SDS011;69029;51.986;5.760;2023-04-24T12:00:02;2.75;;;0.90;;
69081;SDS011;69029;51.986;5.760;2023-04-24T12:02:30;5.63;;;1.00;;
69081;SDS011;69029;51.986;5.760;2023-04-24T12:04:56;5.90;;;1.00;;
69081;SDS011;69029;51.986;5.760;2023-04-24T12:07:22;3.95;;;0.90;;
69081;SDS011;69029;51.986;5.760;2023-04-24T12:09:56;3.88;;;0.90;;
69081;SDS011;69029;51.986;5.760;2023-04-24T12:12:24;2.92;;;0.90;;
69081;SDS011;69029;51.986;5.760;2023-04-24T12:14:55;6.32;;;0.90;;
69081;SDS011;69029;51.986;5.760;2023-04-24T12:17:28;5.60;;;1.10;;
69081;SDS011;69029;51.986;5.760;2023-04-24T12:20:05;3.78;;;0.93;;
69081;SDS011;69029;51.986;5.760;2023-04-24T12:22:51;6.78;;;1.45;;
69081;SDS011;69029;51.986;5.760;2023-04-24T12:25:20;2.45;;;0.60;;
69081;SDS011;69029;51.986;5.760;2023-04-24T12:27:52;4.75;;;1.00;;
69081;SDS011;69029;51.986;5.760;2023-04-24T12:30:47;2.10;;;0.85;;
69081;SDS011;69029;51.986;5.760;2023-04-24T12:33:22;4.40;;;0.90;;
69081;SDS011;69029;51.986;5.760;2023-04-24T12:35:48;2.35;;;0.70;;
69081;SDS011;69029;51.986;5.760;2023-04-24T12:38:16;1.38;;;0.73;;
69081;SDS011;69029;51.986;5.760;2023-04-24T12:40:47;2.47;;;0.60;;
69081;SDS011;69029;51.986;5.760;2023-04-24T12:43:26;1.63;;;0.80;;
69081;SDS011;69029;51.986;5.760;2023-04-24T12:45:51;2.60;;;0.90;;
69081;SDS011;69029;51.986;5.760;2023-04-24T12:48:17;5.82;;;1.27;;
69081;SDS011;69029;51.986;5.760;2023-04-24T12:50:43;3.05;;;0.60;;
69081;SDS011;69029;51.986;5.760;2023-04-24T12:53:09;4.07;;;0.73;;
69081;SDS011;69029;51.986;5.760;2023-04-24T12:55:35;1.95;;;0.70;;
69081;SDS011;69029;51.986;5.760;2023-04-24T12:58:01;3.95;;;0.80;;
69081;SDS011;69029;51.986;5.760;2023-04-24T13:00:28;5.78;;;1.17;;
69081;SDS011;69029;51.986;5.760;2023-04-24T13:02:54;4.07;;;0.88;;
69081;SDS011;69029;51.986;5.760;2023-04-24T13:05:20;4.68;;;0.90;;
69081;SDS011;69029;51.986;5.760;2023-04-24T13:07:45;2.70;;;0.80;;
69081;SDS011;69029;51.986;5.760;2023-04-24T13:10:11;5.18;;;1.00;;
69081;SDS011;69029;51.986;5.760;2023-04-24T13:12:38;5.85;;;0.90;;
69081;SDS011;69029;51.986;5.760;2023-04-24T13:15:04;7.75;;;1.40;;
69081;SDS011;69029;51.986;5.760;2023-04-24T13:17:30;6.10;;;1.08;;
69081;SDS011;69029;51.986;5.760;2023-04-24T13:19:56;3.30;;;0.80;;
69081;SDS011;69029;51.986;5.760;2023-04-24T13:22:21;7.07;;;1.20;;
69081;SDS011;69029;51.986;5.760;2023-04-24T13:24:47;6.85;;;1.35;;
69081;SDS011;69029;51.986;5.760;2023-04-24T13:27:15;7.30;;;1.33;;
69081;SDS011;69029;51.986;5.760;2023-04-24T13:29:41;6.32;;;1.40;;
69081;SDS011;69029;51.986;5.760;2023-04-24T13:32:07;9.23;;;1.70;;
69081;SDS011;69029;51.986;5.760;2023-04-24T13:34:34;6.82;;;1.20;;
69081;SDS011;69029;51.986;5.760;2023-04-24T13:37:00;5.82;;;1.40;;
69081;SDS011;69029;51.986;5.760;2023-04-24T13:39:25;8.43;;;1.70;;
69081;SDS011;69029;51.986;5.760;2023-04-24T13:41:51;7.32;;;1.33;;
69081;SDS011;69029;51.986;5.760;2023-04-24T13:44:18;3.78;;;1.30;;
69081;SDS011;69029;51.986;5.760;2023-04-24T13:46:45;8.20;;;1.80;;
69081;SDS011;69029;51.986;5.760;2023-04-24T13:49:12;5.95;;;1.80;;
69081;SDS011;69029;51.986;5.760;2023-04-24T13:51:38;4.55;;;1.40;;
69081;SDS011;69029;51.986;5.760;2023-04-24T13:54:05;9.30;;;1.40;;
69081;SDS011;69029;51.986;5.760;2023-04-24T13:56:30;6.10;;;1.55;;
69081;SDS011;69029;51.986;5.760;2023-04-24T13:58:56;11.27;;;1.52;;
69081;SDS011;69029;51.986;5.760;2023-04-24T14:01:22;5.38;;;1.20;;
69081;SDS011;69029;51.986;5.760;2023-04-24T14:03:51;6.25;;;1.25;;
69081;SDS011;69029;51.986;5.760;2023-04-24T14:06:17;4.18;;;1.15;;
69081;SDS011;69029;51.986;5.760;2023-04-24T14:08:44;4.43;;;1.50;;
69081;SDS011;69029;51.986;5.760;2023-04-24T14:11:09;8.15;;;1.70;;
69081;SDS011;69029;51.986;5.760;2023-04-24T14:13:36;6.75;;;1.50;;
69081;SDS011;69029;51.986;5.760;2023-04-24T14:16:02;8.60;;;1.90;;
69081;SDS011;69029;51.986;5.760;2023-04-24T14:18:28;7.97;;;1.48;;
69081;SDS011;69029;51.986;5.760;2023-04-24T14:20:54;8.18;;;1.42;;
69081;SDS011;69029;51.986;5.760;2023-04-24T14:23:20;10.75;;;1.45;;
69081;SDS011;69029;51.986;5.760;2023-04-24T14:25:45;4.28;;;1.50;;
69081;SDS011;69029;51.986;5.760;2023-04-24T14:28:13;4.15;;;1.50;;
69081;SDS011;69029;51.986;5.760;2023-04-24T14:30:40;4.38;;;1.30;;
69081;SDS011;69029;51.986;5.760;2023-04-24T14:33:05;9.07;;;1.48;;
69081;SDS011;69029;51.986;5.760;2023-04-24T14:35:31;6.40;;;1.58;;
69081;SDS011;69029;51.986;5.760;2023-04-24T14:37:59;6.10;;;1.45;;
69081;SDS011;69029;51.986;5.760;2023-04-24T14:40:24;6.85;;;1.58;;
69081;SDS011;69029;51.986;5.760;2023-04-24T14:42:50;7.03;;;2.00;;
69081;SDS011;69029;51.986;5.760;2023-04-24T14:45:16;5.82;;;1.42;;